createdAt,value
2018-07-14T00:00:24.090Z,52.77
2018-07-14T00:02:52.231Z,53.47
2018-07-14T00:05:20.401Z,54.57
2018-07-14T00:07:48.535Z,50.80
2018-07-14T00:10:16.709Z,56.57
2018-07-14T00:12:44.962Z,51.97
2018-07-14T00:15:13.151Z,52.13
2018-07-14T00:17:41.388Z,51.20
2018-07-14T00:20:09.593Z,50.80
2018-07-14T00:22:37.755Z,52.57
2018-07-14T00:25:06.108Z,51.67
2018-07-14T00:27:34.200Z,51.87
2018-07-14T00:30:02.334Z,59.07
2018-07-14T00:32:30.561Z,51.30
2018-07-14T00:34:58.726Z,51.90
2018-07-14T00:37:26.833Z,51.13
2018-07-14T00:39:55.078Z,52.90
2018-07-14T00:42:23.169Z,51.20
2018-07-14T00:44:51.298Z,53.47
2018-07-14T00:47:19.472Z,53.90
2018-07-14T00:49:47.607Z,51.93
2018-07-14T00:52:15.745Z,51.07
2018-07-14T00:54:43.897Z,50.57
2018-07-14T00:57:12.114Z,51.67
2018-07-14T00:59:40.288Z,50.77
2018-07-14T01:02:08.408Z,52.67
2018-07-14T01:04:36.550Z,52.00
2018-07-14T01:07:04.698Z,54.13
2018-07-14T01:09:32.875Z,51.00
2018-07-14T01:12:01.020Z,52.27
2018-07-14T01:14:29.209Z,52.97
2018-07-14T01:16:57.334Z,52.60
2018-07-14T01:19:25.542Z,51.47
2018-07-14T01:21:53.722Z,52.60
2018-07-14T01:24:21.828Z,52.00
2018-07-14T01:26:49.976Z,52.07
2018-07-14T01:29:18.217Z,54.73
2018-07-14T01:31:46.337Z,51.53
2018-07-14T01:34:14.459Z,51.47
2018-07-14T01:36:42.599Z,51.40
2018-07-14T01:39:10.758Z,53.37
2018-07-14T01:41:38.936Z,50.97
2018-07-14T01:44:07.127Z,51.90
2018-07-14T01:46:35.256Z,59.40
2018-07-14T01:49:03.380Z,54.17
2018-07-14T01:51:31.513Z,53.73
2018-07-14T01:53:59.632Z,52.90
2018-07-14T01:56:27.794Z,51.03
2018-07-14T01:58:55.907Z,56.00
2018-07-14T02:01:24.038Z,52.67
2018-07-14T02:03:52.156Z,57.80
2018-07-14T02:06:21.087Z,53.13
2018-07-14T02:08:49.203Z,52.37
2018-07-14T02:11:17.371Z,51.93
2018-07-14T02:13:45.491Z,52.37
2018-07-14T02:16:13.693Z,52.70
2018-07-14T02:18:41.833Z,53.37
2018-07-14T02:21:09.967Z,56.50
2018-07-14T02:23:38.073Z,52.53
2018-07-14T02:26:06.207Z,53.73
2018-07-14T02:28:34.334Z,50.80
2018-07-14T02:31:02.478Z,53.90
2018-07-14T02:33:30.653Z,51.60
2018-07-14T02:35:58.833Z,53.27
2018-07-14T02:38:27.117Z,53.83
2018-07-14T02:40:55.257Z,53.10
2018-07-14T02:43:23.438Z,51.87
2018-07-14T02:45:51.569Z,52.53
2018-07-14T02:48:19.677Z,50.50
2018-07-14T02:50:47.805Z,51.67
2018-07-14T02:53:15.954Z,53.20
2018-07-14T02:55:44.117Z,52.53
2018-07-14T02:58:12.246Z,52.23
2018-07-14T03:00:40.506Z,50.07
2018-07-14T03:03:08.659Z,53.27
2018-07-14T03:05:36.835Z,53.00
2018-07-14T03:08:04.971Z,52.30
2018-07-14T03:10:33.087Z,53.37
2018-07-14T03:13:01.269Z,51.67
2018-07-14T03:15:29.390Z,53.30
2018-07-14T03:17:57.507Z,52.03
2018-07-14T03:20:25.622Z,52.60
2018-07-14T03:22:53.751Z,51.20
2018-07-14T03:25:21.864Z,52.00
2018-07-14T03:27:49.995Z,52.30
2018-07-14T03:30:18.201Z,51.50
2018-07-14T03:32:46.390Z,56.30
2018-07-14T03:35:14.536Z,53.47
2018-07-14T03:37:42.629Z,50.13
2018-07-14T03:40:11.768Z,52.90
2018-07-14T03:42:40.203Z,51.70
2018-07-14T03:45:08.372Z,53.97
2018-07-14T03:47:36.726Z,54.60
2018-07-14T03:50:05.529Z,50.57
2018-07-14T03:52:33.694Z,52.93
2018-07-14T03:55:01.950Z,53.30
2018-07-14T03:57:30.086Z,52.00
2018-07-14T03:59:58.231Z,55.37
2018-07-14T04:02:26.362Z,51.60
2018-07-14T04:04:54.508Z,53.40
2018-07-14T04:07:22.645Z,51.87
2018-07-14T04:09:50.790Z,51.20
2018-07-14T04:12:18.902Z,52.77
2018-07-14T04:14:47.047Z,52.07
2018-07-14T04:17:15.153Z,54.83
2018-07-14T04:19:48.214Z,52.93
2018-07-14T04:22:16.329Z,53.37
2018-07-14T04:24:44.477Z,55.40
2018-07-14T04:27:12.610Z,53.03
2018-07-14T04:29:40.744Z,54.90
2018-07-14T04:32:08.918Z,52.90
2018-07-14T04:34:37.057Z,54.37
2018-07-14T04:37:05.172Z,56.77
2018-07-14T04:39:33.310Z,54.37
2018-07-14T04:42:01.402Z,53.67
2018-07-14T04:44:29.522Z,56.27
2018-07-14T04:46:57.639Z,55.40
2018-07-14T04:49:25.805Z,57.37
2018-07-14T04:51:53.889Z,58.60
2018-07-14T04:54:22.044Z,56.10
2018-07-14T04:56:50.174Z,56.47
2018-07-14T04:59:18.310Z,54.27
2018-07-14T05:01:46.879Z,55.20
2018-07-14T05:04:15.014Z,56.83
2018-07-14T05:06:43.126Z,56.40
2018-07-14T05:09:11.323Z,59.07
2018-07-14T05:11:39.477Z,60.90
2018-07-14T05:14:07.648Z,59.60
2018-07-14T05:16:35.763Z,56.90
2018-07-14T05:19:03.892Z,54.10
2018-07-14T05:21:32.016Z,55.47
2018-07-14T05:24:00.155Z,57.33
2018-07-14T05:26:28.442Z,55.10
2018-07-14T05:28:56.533Z,54.47
2018-07-14T05:31:24.780Z,56.10
2018-07-14T05:33:52.885Z,57.37
2018-07-14T05:36:21.021Z,55.93
2018-07-14T05:38:49.364Z,59.23
2018-07-14T05:41:17.489Z,55.40
2018-07-14T05:43:45.752Z,55.17
2018-07-14T05:46:13.916Z,54.53
2018-07-14T05:48:42.076Z,59.17
2018-07-14T05:51:10.197Z,58.23
2018-07-14T05:53:38.315Z,56.43
2018-07-14T05:56:06.469Z,58.93
2018-07-14T05:58:34.574Z,56.90
2018-07-14T06:01:02.761Z,56.17
2018-07-14T06:03:30.880Z,57.07
2018-07-14T06:05:59.079Z,57.00
2018-07-14T06:08:27.213Z,56.57
2018-07-14T06:10:55.350Z,65.93
2018-07-14T06:13:23.476Z,61.10
2018-07-14T06:15:51.594Z,56.47
2018-07-14T06:18:19.735Z,60.20
2018-07-14T06:20:47.893Z,55.63
2018-07-14T06:23:16.044Z,54.57
2018-07-14T06:25:44.187Z,60.30
2018-07-14T06:28:12.388Z,56.40
2018-07-14T06:30:40.522Z,56.70
2018-07-14T06:33:08.815Z,55.60
2018-07-14T06:35:36.989Z,54.00
2018-07-14T06:38:05.121Z,56.10
2018-07-14T06:40:33.280Z,56.03
2018-07-14T06:43:01.466Z,60.80
2018-07-14T06:45:29.606Z,56.17
2018-07-14T06:47:57.757Z,54.67
2018-07-14T06:50:25.885Z,58.27
2018-07-14T06:52:54.030Z,57.00
2018-07-14T06:55:22.142Z,56.43
2018-07-14T06:57:50.368Z,56.20
2018-07-14T07:00:18.478Z,56.50
2018-07-14T07:02:46.773Z,56.67
2018-07-14T07:05:15.021Z,56.13
2018-07-14T07:07:43.143Z,56.10
2018-07-14T07:10:11.262Z,55.70
2018-07-14T07:12:39.465Z,55.20
2018-07-14T07:15:07.596Z,55.43
2018-07-14T07:17:35.930Z,58.93
2018-07-14T07:20:04.286Z,54.17
2018-07-14T07:22:32.413Z,57.17
2018-07-14T07:25:00.503Z,57.23
2018-07-14T07:27:28.630Z,55.17
2018-07-14T07:29:56.726Z,55.10
2018-07-14T07:32:24.832Z,56.87
2018-07-14T07:34:52.944Z,57.90
2018-07-14T07:37:21.115Z,58.23
2018-07-14T07:39:49.216Z,56.70
2018-07-14T07:42:17.367Z,55.10
2018-07-14T07:44:45.510Z,60.10
2018-07-14T07:47:13.662Z,55.27
2018-07-14T07:49:41.773Z,54.13
2018-07-14T07:52:09.884Z,53.07
2018-07-14T07:54:37.997Z,56.30
2018-07-14T07:57:06.094Z,52.87
2018-07-14T07:59:34.202Z,55.50
2018-07-14T08:02:02.330Z,52.23
2018-07-14T08:04:30.469Z,58.47
2018-07-14T08:06:58.635Z,52.97
2018-07-14T08:09:26.737Z,54.17
2018-07-14T08:11:54.883Z,53.57
2018-07-14T08:14:22.981Z,60.30
2018-07-14T08:16:52.109Z,53.60
2018-07-14T08:19:20.235Z,51.77
2018-07-14T08:21:48.415Z,52.60
2018-07-14T08:24:16.651Z,53.80
2018-07-14T08:26:44.804Z,52.07
2018-07-14T08:29:12.969Z,56.03
2018-07-14T08:31:41.274Z,58.23
2018-07-14T08:34:09.486Z,51.83
2018-07-14T08:36:37.601Z,52.90
2018-07-14T08:39:06.824Z,52.07
2018-07-14T08:41:34.939Z,52.47
2018-07-14T08:44:03.052Z,53.30
2018-07-14T08:46:31.215Z,54.07
2018-07-14T08:48:59.441Z,55.50
2018-07-14T08:51:27.755Z,51.87
2018-07-14T08:53:55.908Z,52.00
2018-07-14T08:56:24.008Z,51.63
2018-07-14T08:58:52.108Z,50.33
2018-07-14T09:01:20.263Z,50.17
2018-07-14T09:03:48.410Z,52.10
2018-07-14T09:06:16.572Z,50.13
2018-07-14T09:08:44.761Z,52.67
2018-07-14T09:11:12.908Z,51.00
2018-07-14T09:13:41.029Z,50.17
2018-07-14T09:16:09.144Z,50.70
2018-07-14T09:18:37.262Z,50.60
2018-07-14T09:21:05.366Z,51.60
2018-07-14T09:23:33.523Z,50.77
2018-07-14T09:26:01.699Z,53.73
2018-07-14T09:28:29.817Z,51.67
2018-07-14T09:30:57.925Z,52.40
2018-07-14T09:33:26.046Z,51.60
2018-07-14T09:35:54.208Z,52.33
2018-07-14T09:38:22.327Z,50.57
2018-07-14T09:40:50.469Z,53.43
2018-07-14T09:43:18.680Z,49.87
2018-07-14T09:45:46.901Z,49.10
2018-07-14T09:48:16.065Z,50.90
2018-07-14T09:50:44.284Z,53.20
2018-07-14T09:53:15.516Z,52.30
2018-07-14T09:55:43.705Z,59.70
2018-07-14T09:58:11.841Z,69.73
2018-07-14T10:00:45.426Z,68.97
2018-07-14T10:03:13.537Z,56.93
2018-07-14T10:05:41.689Z,54.57
2018-07-14T10:08:09.795Z,51.40
2018-07-14T10:10:37.950Z,52.70
2018-07-14T10:13:06.057Z,51.73
2018-07-14T10:15:34.193Z,52.73
2018-07-14T10:18:02.311Z,50.37
2018-07-14T10:20:30.441Z,50.60
2018-07-14T10:22:58.537Z,51.43
2018-07-14T10:25:26.698Z,50.50
2018-07-14T10:27:54.757Z,50.47
2018-07-14T10:30:22.910Z,50.90
2018-07-14T10:32:51.123Z,48.37
2018-07-14T10:35:19.278Z,49.90
2018-07-14T10:37:47.386Z,51.27
2018-07-14T10:40:15.545Z,57.87
2018-07-14T10:42:43.730Z,61.23
2018-07-14T10:45:11.899Z,73.50
2018-07-14T10:47:40.042Z,58.90
2018-07-14T10:50:08.162Z,51.10
2018-07-14T10:52:36.323Z,49.27
2018-07-14T10:55:04.484Z,49.67
2018-07-14T10:57:32.555Z,49.40
2018-07-14T11:00:00.734Z,50.70
2018-07-14T11:02:28.851Z,49.60
2018-07-14T11:04:56.998Z,55.97
2018-07-14T11:07:25.136Z,52.37
2018-07-14T11:09:53.230Z,50.60
2018-07-14T11:12:21.366Z,51.23
2018-07-14T11:14:49.492Z,52.17
2018-07-14T11:17:17.649Z,67.30
2018-07-14T11:19:45.764Z,63.77
2018-07-14T11:22:13.953Z,56.90
2018-07-14T11:24:42.141Z,185.27
2018-07-14T11:27:10.353Z,100.47
2018-07-14T11:29:38.581Z,142.20
2018-07-14T11:32:06.725Z,193.13
2018-07-14T11:34:34.879Z,118.43
2018-07-14T11:37:03.022Z,105.37
2018-07-14T11:39:31.134Z,116.70
2018-07-14T11:42:00.292Z,81.10
2018-07-14T11:44:28.418Z,157.47
2018-07-14T11:46:56.682Z,100.57
2018-07-14T11:49:24.919Z,98.07
2018-07-14T11:51:53.144Z,65.47
2018-07-14T11:54:21.322Z,54.47
2018-07-14T11:56:49.418Z,52.07
2018-07-14T11:59:17.533Z,57.37
2018-07-14T12:01:45.680Z,55.10
2018-07-14T12:04:13.837Z,51.13
2018-07-14T12:06:41.971Z,52.57
2018-07-14T12:09:11.100Z,54.40
2018-07-14T12:11:39.274Z,64.70
2018-07-14T12:14:07.457Z,56.40
2018-07-14T12:16:35.779Z,51.40
2018-07-14T12:19:03.909Z,55.73
2018-07-14T12:21:32.064Z,64.87
2018-07-14T12:24:00.398Z,171.47
2018-07-14T12:26:28.599Z,246.00
2018-07-14T12:28:57.098Z,88.43
2018-07-14T12:31:25.293Z,93.20
2018-07-14T12:33:53.463Z,57.47
2018-07-14T12:36:21.634Z,53.00
2018-07-14T12:38:49.895Z,52.17
2018-07-14T12:41:18.021Z,51.03
2018-07-14T12:43:46.178Z,53.20
2018-07-14T12:46:14.334Z,50.53
2018-07-14T12:48:42.480Z,49.30
2018-07-14T12:51:10.722Z,50.90
2018-07-14T12:53:38.915Z,51.00
2018-07-14T12:56:07.044Z,52.03
2018-07-14T12:58:35.178Z,52.67
2018-07-14T13:01:03.451Z,50.97
2018-07-14T13:03:31.565Z,49.80
2018-07-14T13:05:59.737Z,51.13
2018-07-14T13:08:28.022Z,50.53
2018-07-14T13:10:56.176Z,51.27
2018-07-14T13:13:24.408Z,51.03
2018-07-14T13:15:52.547Z,50.53
2018-07-14T13:18:20.694Z,53.50
2018-07-14T13:20:48.829Z,50.03
2018-07-14T13:23:16.949Z,50.07
2018-07-14T13:25:45.083Z,50.90
2018-07-14T13:28:13.213Z,51.17
2018-07-14T13:30:41.371Z,50.10
2018-07-14T13:33:09.509Z,50.90
2018-07-14T13:35:37.664Z,50.03
2018-07-14T13:38:05.860Z,52.10
2018-07-14T13:40:34.059Z,49.23
2018-07-14T13:43:02.261Z,51.87
2018-07-14T13:45:30.477Z,50.70
2018-07-14T13:47:58.685Z,52.40
2018-07-14T13:50:27.016Z,50.30
2018-07-14T13:52:55.265Z,49.50
2018-07-14T13:55:23.481Z,50.90
2018-07-14T13:57:51.947Z,52.80
2018-07-14T14:00:20.154Z,50.43
2018-07-14T14:02:48.291Z,50.67
2018-07-14T14:05:16.465Z,53.20
2018-07-14T14:07:44.623Z,49.30
2018-07-14T14:10:12.807Z,50.47
2018-07-14T14:12:40.947Z,50.10
2018-07-14T14:15:09.105Z,49.77
2018-07-14T14:17:37.250Z,49.00
2018-07-14T14:20:05.615Z,49.73
2018-07-14T14:22:33.704Z,49.20
2018-07-14T14:25:01.907Z,49.33
2018-07-14T14:27:30.090Z,50.17
2018-07-14T14:29:58.403Z,49.27
2018-07-14T14:32:26.598Z,50.73
2018-07-14T14:34:54.849Z,49.47
2018-07-14T14:37:22.963Z,51.83
2018-07-14T14:39:51.115Z,49.33
2018-07-14T14:42:19.278Z,48.00
2018-07-14T14:44:47.506Z,50.43
2018-07-14T14:47:15.641Z,48.60
2018-07-14T14:49:43.818Z,49.20
2018-07-14T14:52:11.972Z,50.93
2018-07-14T14:54:40.130Z,49.67
2018-07-14T14:57:08.351Z,50.40
2018-07-14T14:59:36.518Z,52.40
2018-07-14T15:02:04.770Z,50.50
2018-07-14T15:04:33.046Z,51.70
2018-07-14T15:07:02.005Z,51.50
2018-07-14T15:09:30.225Z,50.37
2018-07-14T15:11:58.577Z,49.80
2018-07-14T15:14:26.793Z,51.50
2018-07-14T15:16:54.994Z,51.50
2018-07-14T15:19:23.179Z,50.20
2018-07-14T15:21:51.328Z,49.87
2018-07-14T15:24:19.445Z,52.50
2018-07-14T15:26:47.590Z,51.47
2018-07-14T15:29:15.727Z,52.70
2018-07-14T15:31:43.868Z,51.00
2018-07-14T15:34:11.997Z,51.20
2018-07-14T15:36:40.155Z,55.03
2018-07-14T15:39:09.146Z,54.40
2018-07-14T15:41:37.377Z,52.33
2018-07-14T15:44:05.604Z,51.50
2018-07-14T15:46:33.742Z,51.37
2018-07-14T15:49:01.913Z,52.37
2018-07-14T15:51:30.097Z,54.10
2018-07-14T15:53:58.306Z,51.87
2018-07-14T15:56:26.490Z,51.17
2018-07-14T15:58:54.650Z,52.33
2018-07-14T16:01:22.865Z,53.73
2018-07-14T16:03:51.037Z,50.67
2018-07-14T16:06:19.191Z,52.10
2018-07-14T16:08:47.325Z,52.93
2018-07-14T16:11:15.436Z,50.57
2018-07-14T16:13:43.592Z,53.67
2018-07-14T16:16:11.730Z,51.10
2018-07-14T16:18:39.873Z,52.20
2018-07-14T16:21:07.989Z,55.13
2018-07-14T16:23:36.106Z,51.17
2018-07-14T16:26:04.253Z,51.43
2018-07-14T16:28:32.456Z,51.07
2018-07-14T16:31:00.605Z,51.07
2018-07-14T16:33:28.781Z,52.90
2018-07-14T16:35:57.082Z,50.93
2018-07-14T16:38:25.095Z,55.00
2018-07-14T16:40:53.296Z,51.13
2018-07-14T16:43:21.456Z,50.77
2018-07-14T16:45:49.603Z,50.90
2018-07-14T16:48:17.768Z,50.37
2018-07-14T16:50:45.956Z,50.30
2018-07-14T16:53:14.086Z,49.50
2018-07-14T16:55:42.345Z,50.40
2018-07-14T16:58:10.529Z,50.47
2018-07-14T17:00:38.675Z,51.30
2018-07-14T17:03:06.809Z,50.93
2018-07-14T17:05:34.943Z,52.87
2018-07-14T17:08:03.120Z,55.10
2018-07-14T17:10:31.289Z,51.70
2018-07-14T17:12:59.470Z,53.37
2018-07-14T17:15:27.654Z,50.20
2018-07-14T17:17:55.838Z,51.50
2018-07-14T17:20:24.092Z,50.70
2018-07-14T17:22:52.194Z,53.17
2018-07-14T17:25:20.349Z,51.57
2018-07-14T17:27:48.498Z,53.97
2018-07-14T17:30:16.640Z,50.90
2018-07-14T17:32:44.766Z,51.40
2018-07-14T17:35:12.890Z,53.20
2018-07-14T17:37:41.019Z,50.30
2018-07-14T17:40:09.165Z,50.47
2018-07-14T17:42:37.340Z,52.23
2018-07-14T17:45:06.025Z,52.40
2018-07-14T17:47:34.134Z,54.90
2018-07-14T17:50:02.386Z,52.47
2018-07-14T17:52:30.582Z,50.00
2018-07-14T17:54:58.714Z,51.47
2018-07-14T17:57:26.913Z,55.67
2018-07-14T17:59:55.125Z,53.93
2018-07-14T18:02:23.201Z,54.40
2018-07-14T18:04:51.349Z,54.30
2018-07-14T18:07:19.497Z,50.70
2018-07-14T18:09:47.652Z,54.10
2018-07-14T18:12:15.785Z,54.60
2018-07-14T18:14:44.020Z,57.13
2018-07-14T18:17:13.034Z,55.40
2018-07-14T18:19:41.531Z,54.60
2018-07-14T18:22:09.641Z,57.83
2018-07-14T18:24:37.760Z,52.97
2018-07-14T18:27:06.024Z,52.87
2018-07-14T18:29:34.145Z,57.30
2018-07-14T18:32:02.253Z,57.87
2018-07-14T18:34:30.426Z,56.10
2018-07-14T18:36:58.601Z,53.07
2018-07-14T18:39:26.742Z,54.90
2018-07-14T18:41:54.910Z,56.60
2018-07-14T18:44:23.053Z,53.90
2018-07-14T18:46:51.178Z,51.80
2018-07-14T18:49:19.299Z,53.80
2018-07-14T18:51:47.473Z,54.77
2018-07-14T18:54:15.647Z,54.60
2018-07-14T18:56:43.897Z,57.13
2018-07-14T18:59:12.055Z,53.37
2018-07-14T19:01:40.343Z,53.40
2018-07-14T19:04:08.633Z,56.60
2018-07-14T19:06:36.787Z,56.90
2018-07-14T19:09:05.759Z,59.30
2018-07-14T19:11:33.946Z,59.47
2018-07-14T19:14:02.248Z,58.80
2018-07-14T19:16:30.632Z,60.70
2018-07-14T19:18:58.899Z,71.93
2018-07-14T19:21:27.091Z,72.70
2018-07-14T19:23:56.446Z,55.80
2018-07-14T19:26:24.663Z,54.67
2018-07-14T19:28:52.869Z,55.10
2018-07-14T19:31:21.034Z,53.80
2018-07-14T19:33:49.161Z,60.40
2018-07-14T19:36:17.335Z,54.60
2018-07-14T19:38:45.816Z,58.07
2018-07-14T19:41:14.438Z,57.90
2018-07-14T19:43:42.611Z,57.43
2018-07-14T19:46:10.753Z,57.57
2018-07-14T19:48:38.865Z,56.50
2018-07-14T19:51:07.226Z,58.43
2018-07-14T19:53:35.355Z,59.47
2018-07-14T19:56:03.530Z,59.73
2018-07-14T19:58:31.642Z,60.00
2018-07-14T20:00:59.805Z,60.87
2018-07-14T20:03:27.922Z,58.60
2018-07-14T20:05:56.062Z,56.27
2018-07-14T20:08:24.234Z,61.40
2018-07-14T20:10:52.446Z,60.97
2018-07-14T20:13:20.641Z,60.30
2018-07-14T20:15:48.805Z,57.50
2018-07-14T20:18:16.983Z,56.30
2018-07-14T20:20:45.620Z,58.03
2018-07-14T20:23:19.081Z,54.60
2018-07-14T20:25:48.070Z,55.70
2018-07-14T20:28:16.282Z,56.47
2018-07-14T20:30:44.462Z,56.30
2018-07-14T20:33:12.594Z,54.37
2018-07-14T20:35:40.797Z,56.80
2018-07-14T20:38:08.938Z,55.97
2018-07-14T20:40:37.584Z,54.47
2018-07-14T20:43:05.617Z,55.00
2018-07-14T20:45:33.779Z,53.80
2018-07-14T20:48:01.926Z,56.30
2018-07-14T20:50:30.068Z,55.00
2018-07-14T20:52:58.183Z,57.70
2018-07-14T20:55:26.302Z,55.07
2018-07-14T20:57:54.749Z,54.77
2018-07-14T21:00:22.902Z,55.30
2018-07-14T21:02:51.022Z,57.57
2018-07-14T21:05:19.158Z,56.87
2018-07-14T21:07:47.323Z,54.77
2018-07-14T21:10:15.496Z,54.07
2018-07-14T21:12:43.735Z,57.57
2018-07-14T21:15:11.741Z,56.83
2018-07-14T21:17:39.882Z,58.00
2018-07-14T21:20:08.019Z,57.70
2018-07-14T21:22:36.203Z,56.50
2018-07-14T21:25:04.390Z,55.27
2018-07-14T21:27:32.498Z,55.30
2018-07-14T21:30:00.706Z,55.47
2018-07-14T21:32:28.832Z,61.87
2018-07-14T21:34:56.942Z,57.80
2018-07-14T21:37:25.105Z,56.80
2018-07-14T21:39:53.593Z,56.33
2018-07-14T21:42:21.747Z,54.27
2018-07-14T21:44:55.755Z,57.27
2018-07-14T21:47:24.237Z,54.77
2018-07-14T21:49:52.353Z,56.83
2018-07-14T21:52:20.537Z,56.50
2018-07-14T21:54:48.696Z,56.57
2018-07-14T21:57:16.948Z,59.60
2018-07-14T21:59:45.104Z,56.57
2018-07-14T22:02:13.417Z,54.60
2018-07-14T22:04:41.682Z,61.03
2018-07-14T22:07:09.870Z,59.40
2018-07-14T22:09:39.080Z,57.03
2018-07-14T22:12:07.255Z,57.77
2018-07-14T22:14:35.504Z,56.47
2018-07-14T22:17:03.998Z,56.30
2018-07-14T22:19:32.865Z,56.20
2018-07-14T22:22:01.658Z,56.80
2018-07-14T22:24:29.851Z,57.80
2018-07-14T22:26:58.036Z,60.60
2018-07-14T22:29:26.443Z,60.00
2018-07-14T22:31:54.470Z,58.53
2018-07-14T22:34:22.747Z,57.70
2018-07-14T22:36:50.918Z,60.83
2018-07-14T22:39:20.183Z,56.00
2018-07-14T22:41:49.200Z,56.67
2018-07-14T22:44:18.274Z,57.00
2018-07-14T22:46:46.469Z,58.30
2018-07-14T22:49:14.667Z,57.90
2018-07-14T22:51:42.852Z,58.07
2018-07-14T22:54:11.045Z,58.40
2018-07-14T22:56:39.264Z,61.03
2018-07-14T22:59:07.427Z,62.37
2018-07-14T23:01:35.601Z,63.00
2018-07-14T23:04:03.795Z,58.50
2018-07-14T23:06:31.969Z,60.17
2018-07-14T23:09:00.223Z,60.77
2018-07-14T23:11:28.387Z,62.20
2018-07-14T23:13:56.613Z,60.60
2018-07-14T23:16:24.825Z,59.30
2018-07-14T23:18:53.012Z,59.70
2018-07-14T23:21:21.205Z,59.20
2018-07-14T23:23:49.386Z,58.40
2018-07-14T23:26:17.562Z,59.13
2018-07-14T23:28:45.744Z,59.30
2018-07-14T23:31:13.991Z,59.47
2018-07-14T23:33:42.162Z,62.40
2018-07-14T23:36:10.365Z,59.73
2018-07-14T23:38:38.632Z,59.40
2018-07-14T23:41:06.803Z,59.27
2018-07-14T23:43:35.003Z,58.43
2018-07-14T23:46:06.921Z,57.60
2018-07-14T23:48:35.100Z,63.50
2018-07-14T23:51:03.390Z,62.27
2018-07-14T23:53:31.595Z,59.30
2018-07-14T23:55:59.747Z,57.70
2018-07-14T23:58:27.965Z,61.43
